Kingshill, Virgin Islands
Current Conditions -  °F | °C
As of 9:00 PM on Monday 24 Nov 2014 (Local Time) from TUPJ Reporting Station
Scattered Clouds Scattered Clouds  
Wind Chill: 79°   Ceiling: Unl
Heat Index: 82°   Visibility: 6mi
Dew Point: 73°   Wind: 12mph
Humidity: 83%   Direction: 100°E
Pressure: 30.06"   Gusts: NA
Location:  17.72°N, 64.78°W
Report Text: TUPJ 250100Z 10010KT 9999 SCT019 26/23 Q1018 RMK A3006
Loading
Personal Weather Stations






























Interactive Weather Map New forecast layout! Learn more

10-Day Weather Forecast

Advertisements
Track Severe Weather on mobile